Time;durP1;ratioP1;P1;durP2;ratioP2;P2;SDS_P1;SDS_P2;PMS_P1;PMS_P2;Temp;Humidity;BMP_temperature;BMP_pressure;BME280_temperature;BME280_humidity;BME280_pressure;Samples;Min_cycle;Max_cycle;Signal;HPM_P1;HPM_P2
2021/07/01 00:00:10;;;;;;;5.03;1.40;;;22.60;96.70;;;;;;5008510;28;20487;-74
2021/07/01 00:02:38;;;;;;;8.60;1.92;;;22.60;96.70;;;;;;5008200;28;20124;-74
2021/07/01 00:05:08;;;;;;;9.70;1.67;;;22.40;96.70;;;;;;5016881;28;20038;-74
2021/07/01 00:07:38;;;;;;;8.95;1.73;;;22.40;96.70;;;;;;5023581;28;20049;-74
2021/07/01 00:10:09;;;;;;;7.13;1.80;;;22.50;96.70;;;;;;5009579;28;20042;-74
2021/07/01 00:12:38;;;;;;;5.40;1.63;;;22.60;96.70;;;;;;5011448;28;20091;-74
2021/07/01 00:15:09;;;;;;;5.50;1.38;;;22.60;96.70;;;;;;5009805;28;20048;-74
2021/07/01 00:17:37;;;;;;;7.10;1.60;;;22.70;96.70;;;;;;5007189;28;20045;-74
2021/07/01 00:20:07;;;;;;;8.73;1.75;;;22.80;96.70;;;;;;5006742;28;20104;-74
2021/07/01 00:22:37;;;;;;;8.35;1.70;;;22.80;96.70;;;;;;5005895;28;20338;-74
2021/07/01 00:25:06;;;;;;;8.95;1.83;;;22.80;96.70;;;;;;5009223;28;20512;-74
2021/07/01 00:27:35;;;;;;;6.25;1.23;;;22.70;96.70;;;;;;5009812;28;20034;-74
2021/07/01 00:30:05;;;;;;;9.00;2.00;;;22.70;96.70;;;;;;5006369;28;20052;-74
2021/07/01 00:32:34;;;;;;;6.47;1.35;;;22.60;96.70;;;;;;5009638;28;20038;-74
2021/07/01 00:35:03;;;;;;;7.75;1.48;;;22.50;96.70;;;;;;5004045;28;20048;-74
2021/07/01 00:37:32;;;;;;;6.32;1.63;;;22.50;96.70;;;;;;5009112;28;20068;-74
2021/07/01 00:40:06;;;;;;;6.57;1.70;;;22.50;96.70;;;;;;5021880;28;20050;-74
2021/07/01 00:42:35;;;;;;;9.88;1.65;;;22.30;96.70;;;;;;5008093;28;20125;-74
2021/07/01 00:45:05;;;;;;;6.88;1.85;;;22.20;96.70;;;;;;5005876;28;20042;-74
2021/07/01 00:47:34;;;;;;;9.05;1.63;;;22.30;96.70;;;;;;5010027;28;20511;-74
2021/07/01 00:50:07;;;;;;;9.20;2.08;;;22.40;96.70;;;;;;5003283;28;20151;-74
2021/07/01 00:52:36;;;;;;;8.63;2.00;;;22.40;96.70;;;;;;5003059;28;20038;-74
2021/07/01 00:55:10;;;;;;;9.35;2.45;;;22.50;96.70;;;;;;5003587;28;20499;-74
2021/07/01 00:57:41;;;;;;;7.07;1.83;;;22.50;96.70;;;;;;5002871;28;20143;-74
2021/07/01 01:03:03;;;;;;;8.60;2.25;;;22.60;96.70;;;;;;4985307;28;20065;-74
2021/07/01 01:05:32;;;;;;;6.55;1.70;;;22.60;96.70;;;;;;5003788;28;20595;-74
2021/07/01 01:08:00;;;;;;;8.15;1.98;;;22.50;96.70;;;;;;5003043;28;20084;-74
2021/07/01 01:10:30;;;;;;;5.95;1.67;;;22.40;96.70;;;;;;5005318;28;20112;-74
2021/07/01 01:13:25;;;;;;;9.27;2.15;;;22.50;96.70;;;;;;4987156;28;20136;-74
2021/07/01 01:16:13;;;;;;;5.47;2.00;;;22.50;96.70;;;;;;5005611;28;20176;-74
2021/07/01 01:18:43;;;;;;;8.80;1.95;;;22.30;96.70;;;;;;5003557;28;20100;-73
2021/07/01 01:21:14;;;;;;;7.60;2.08;;;22.30;96.70;;;;;;5004184;28;20093;-73
2021/07/01 01:23:44;;;;;;;9.40;1.90;;;22.30;96.70;;;;;;5002156;28;20050;-73
2021/07/01 01:26:13;;;;;;;9.52;2.17;;;22.30;96.70;;;;;;5007688;28;20046;-74
2021/07/01 01:28:48;;;;;;;8.82;1.90;;;22.10;96.70;;;;;;5002836;28;20510;-74
2021/07/01 01:31:20;;;;;;;7.82;1.90;;;22.10;96.70;;;;;;5019842;28;20377;-74
2021/07/01 01:33:52;;;;;;;3.83;1.50;;;22.30;96.70;;;;;;5006382;28;20061;-74
2021/07/01 01:36:20;;;;;;;6.53;1.40;;;22.30;96.70;;;;;;5003309;28;20578;-74
2021/07/01 01:38:52;;;;;;;8.38;1.92;;;22.40;96.70;;;;;;5004780;28;20052;-74
2021/07/01 01:41:40;;;;;;;8.85;2.05;;;22.40;96.70;;;;;;5004051;28;20058;-74
2021/07/01 01:44:09;;;;;;;7.03;2.10;;;22.40;96.70;;;;;;4984120;28;20045;-74
2021/07/01 01:46:39;;;;;;;9.55;1.67;;;22.40;96.70;;;;;;5004609;28;20030;-74
2021/07/01 01:49:09;;;;;;;7.82;1.90;;;22.40;96.70;;;;;;5022227;28;20054;-74
2021/07/01 01:51:41;;;;;;;10.27;2.05;;;22.40;96.70;;;;;;5010979;28;20041;-74
2021/07/01 01:54:16;;;;;;;7.82;1.73;;;22.50;96.70;;;;;;5004027;28;20060;-74
2021/07/01 01:56:46;;;;;;;8.07;1.48;;;22.50;96.70;;;;;;5003021;28;20046;-74
2021/07/01 01:59:46;;;;;;;5.40;1.30;;;22.50;96.70;;;;;;5004719;28;20106;-74
2021/07/01 02:02:33;;;;;;;9.07;1.90;;;22.40;96.70;;;;;;5003518;28;20520;-74
2021/07/01 02:05:28;;;;;;;5.13;1.50;;;22.50;96.70;;;;;;5003508;28;20056;-74
2021/07/01 02:07:56;;;;;;;7.35;1.65;;;22.30;96.70;;;;;;5023758;28;20077;-74
2021/07/01 02:10:34;;;;;;;9.55;1.65;;;22.30;96.70;;;;;;5006539;28;20119;-74
2021/07/01 02:13:10;;;;;;;6.80;1.75;;;22.20;96.70;;;;;;5004357;28;20444;-74
2021/07/01 02:15:58;;;;;;;5.82;1.63;;;22.10;96.70;;;;;;5002374;28;20381;-74
2021/07/01 02:18:28;;;;;;;9.88;2.08;;;22.20;96.70;;;;;;5010055;28;20041;-74
2021/07/01 02:20:56;;;;;;;9.35;1.95;;;22.10;96.70;;;;;;5000405;28;20049;-74
2021/07/01 02:23:25;;;;;;;7.93;2.00;;;22.10;96.70;;;;;;5004001;28;20096;-74
2021/07/01 02:25:54;;;;;;;8.35;2.17;;;22.10;96.70;;;;;;5004105;28;20049;-74
2021/07/01 02:28:23;;;;;;;11.05;2.53;;;22.00;96.70;;;;;;5002866;28;20116;-74
2021/07/01 02:31:10;;;;;;;8.35;1.67;;;22.00;96.70;;;;;;5007566;28;20056;-74
2021/07/01 02:33:40;;;;;;;6.47;1.60;;;22.00;96.70;;;;;;5006231;28;20037;-74
2021/07/01 02:36:09;;;;;;;6.20;1.70;;;22.00;96.70;;;;;;5015876;28;20516;-74
2021/07/01 02:38:55;;;;;;;8.40;2.08;;;21.90;96.70;;;;;;5005590;28;20103;-74
2021/07/01 02:41:26;;;;;;;7.13;1.98;;;21.90;96.70;;;;;;4996834;28;20607;-74
2021/07/01 02:43:57;;;;;;;8.70;1.63;;;21.90;96.70;;;;;;5010562;28;20117;-74
2021/07/01 02:46:45;;;;;;;;;;;21.80;96.70;;;;;;5005590;28;20084;-74
2021/07/01 02:49:22;;;;;;;9.52;1.88;;;21.80;96.70;;;;;;5001000;28;20118;-74
2021/07/01 02:51:58;;;;;;;8.95;2.30;;;21.80;96.70;;;;;;5000537;28;20056;-74
2021/07/01 02:54:27;;;;;;;4.93;1.55;;;21.90;96.70;;;;;;5005542;28;20040;-74
2021/07/01 02:57:00;;;;;;;5.18;1.60;;;21.70;96.70;;;;;;5002022;28;20040;-74
2021/07/01 02:59:34;;;;;;;7.25;1.85;;;21.80;96.70;;;;;;5002214;28;20050;-74
2021/07/01 03:02:21;;;;;;;;;;;21.80;96.70;;;;;;5007560;28;20041;-74
2021/07/01 03:05:28;;;;;;;5.68;1.63;;;21.70;96.70;;;;;;4966703;28;20326;-74
2021/07/01 03:07:57;;;;;;;6.47;1.50;;;21.60;96.70;;;;;;4963595;28;20146;-74
2021/07/01 03:10:25;;;;;;;5.97;1.63;;;21.50;96.70;;;;;;4965785;28;20076;-74
2021/07/01 03:13:03;;;;;;;6.10;1.90;;;21.60;96.70;;;;;;5001807;28;20065;-74
2021/07/01 03:15:34;;;;;;;7.72;1.70;;;21.50;96.70;;;;;;5004935;28;20115;-74
2021/07/01 03:18:04;;;;;;;5.47;1.45;;;21.60;96.70;;;;;;5005904;28;20033;-74
2021/07/01 03:20:56;;;;;;;5.95;1.73;;;21.60;96.70;;;;;;5009829;28;20060;-74
2021/07/01 03:23:43;;;;;;;8.85;1.90;;;21.70;96.70;;;;;;5002151;28;20061;-74
2021/07/01 03:26:13;;;;;;;7.65;1.73;;;21.60;96.70;;;;;;5004742;28;20053;-74
2021/07/01 03:28:44;;;;;;;7.13;1.73;;;21.60;96.70;;;;;;5001678;28;20228;-74
2021/07/01 03:31:13;;;;;;;7.75;1.67;;;21.50;96.70;;;;;;5001969;28;20523;-74
2021/07/01 03:33:42;;;;;;;8.75;1.85;;;21.50;96.70;;;;;;5003367;28;20744;-74
2021/07/01 03:36:11;;;;;;;5.45;1.90;;;21.50;96.70;;;;;;5017779;28;20037;-74
2021/07/01 03:38:59;;;;;;;;;;;21.40;96.70;;;;;;5003388;28;20069;-73
2021/07/01 03:41:45;;;;;;;8.13;1.60;;;21.40;96.70;;;;;;4997106;28;19973;-74
2021/07/01 03:44:17;;;;;;;7.95;1.67;;;21.00;96.70;;;;;;4999216;28;20041;-74
2021/07/01 03:46:45;;;;;;;6.57;1.50;;;21.10;96.70;;;;;;5001960;28;20042;-74
2021/07/01 03:49:14;;;;;;;7.05;1.65;;;21.20;96.70;;;;;;5004135;28;20961;-74
2021/07/01 03:51:51;;;;;;;5.75;1.42;;;21.30;96.70;;;;;;5003381;28;20057;-74
2021/07/01 03:54:28;;;;;;;5.65;1.60;;;21.20;96.70;;;;;;5005249;28;20050;-74
2021/07/01 03:57:00;;;;;;;7.28;1.35;;;21.30;96.70;;;;;;5001535;28;20579;-74
2021/07/01 03:59:40;;;;;;;7.38;2.00;;;21.20;96.70;;;;;;5000456;28;20054;-74
2021/07/01 04:02:38;;;;;;;6.82;1.80;;;21.20;96.70;;;;;;4993697;28;20053;-75
2021/07/01 04:05:22;;;;;;;4.47;1.27;;;21.20;96.70;;;;;;5001476;28;20400;-74
2021/07/01 04:07:53;;;;;;;7.75;1.55;;;21.30;96.70;;;;;;5002180;28;20054;-74
2021/07/01 04:10:41;;;;;;;5.47;1.10;;;21.30;96.70;;;;;;5003797;28;20054;-74
2021/07/01 04:13:13;;;;;;;7.90;1.67;;;21.30;96.70;;;;;;4999256;28;20052;-74
2021/07/01 04:16:09;;;;;;;8.02;1.40;;;21.40;96.70;;;;;;5000469;28;20058;-74
2021/07/01 04:19:06;;;;;;;6.32;1.30;;;21.30;96.70;;;;;;4985819;28;20042;-74
2021/07/01 04:21:53;;;;;;;4.05;1.48;;;21.20;96.70;;;;;;4983430;28;20158;-74
2021/07/01 04:24:39;;;;;;;6.35;1.40;;;21.30;96.70;;;;;;4985775;28;20119;-74
2021/07/01 04:27:21;;;;;;;6.30;1.80;;;21.40;96.70;;;;;;4980886;28;20417;-74
2021/07/01 04:29:49;;;;;;;5.20;1.48;;;21.10;96.70;;;;;;4984952;28;20054;-74
2021/07/01 04:32:21;;;;;;;12.48;2.05;;;21.10;96.70;;;;;;4970491;28;20053;-74
2021/07/01 04:34:52;;;;;;;6.55;1.88;;;21.20;96.70;;;;;;4958503;28;20046;-74
2021/07/01 04:37:20;;;;;;;7.10;2.03;;;21.10;96.70;;;;;;4985115;28;20069;-72
2021/07/01 04:39:52;;;;;;;6.13;1.60;;;21.30;96.70;;;;;;4965605;28;20096;-72
2021/07/01 04:42:27;;;;;;;7.65;1.40;;;21.30;96.70;;;;;;4962456;28;20059;-75
2021/07/01 04:44:57;;;;;;;7.03;1.58;;;21.30;96.70;;;;;;4968935;28;20130;-75
2021/07/01 04:47:28;;;;;;;8.25;1.42;;;21.30;96.70;;;;;;4964442;28;21208;-72
2021/07/01 04:50:05;;;;;;;7.00;1.60;;;21.40;96.70;;;;;;4967395;28;20285;-72
2021/07/01 04:52:41;;;;;;;4.88;1.27;;;21.30;96.70;;;;;;4986875;28;20112;-72
2021/07/01 04:55:27;;;;;;;9.38;1.70;;;21.30;96.70;;;;;;4995209;28;20052;-73
2021/07/01 04:58:04;;;;;;;6.35;1.92;;;21.40;96.70;;;;;;5003823;28;20042;-73
2021/07/01 05:00:37;;;;;;;8.25;1.27;;;21.50;96.70;;;;;;5009916;28;20050;-73
2021/07/01 05:03:36;;;;;;;6.05;1.52;;;21.60;96.70;;;;;;4992634;28;20042;-73
2021/07/01 05:06:05;;;;;;;6.00;2.33;;;21.50;96.70;;;;;;5019459;28;20050;-73
2021/07/01 05:08:37;;;;;;;8.82;4.03;;;21.50;96.70;;;;;;4987689;28;20052;-73
2021/07/01 05:11:05;;;;;;;8.40;4.40;;;21.60;96.70;;;;;;5009948;28;20046;-73
2021/07/01 05:13:33;;;;;;;9.32;4.05;;;21.60;96.70;;;;;;5007965;28;20792;-75
2021/07/01 05:16:02;;;;;;;10.90;4.07;;;21.60;96.70;;;;;;5003292;28;20488;-73
2021/07/01 05:18:31;;;;;;;11.00;4.03;;;21.70;96.70;;;;;;4986874;28;20042;-73
2021/07/01 05:21:28;;;;;;;12.48;4.07;;;21.80;96.70;;;;;;5003065;28;20049;-73
2021/07/01 05:24:14;;;;;;;8.02;3.25;;;21.90;96.70;;;;;;5003494;28;20438;-73
2021/07/01 05:27:03;;;;;;;9.23;3.35;;;21.90;96.70;;;;;;5007154;28;20060;-73
2021/07/01 05:29:51;;;;;;;10.23;3.55;;;21.70;96.70;;;;;;5006601;28;20183;-73
2021/07/01 05:32:49;;;;;;;9.02;3.33;;;21.80;96.70;;;;;;5015121;28;20056;-74
2021/07/01 05:35:26;;;;;;;10.43;3.30;;;21.90;96.70;;;;;;5005888;28;20033;-74
2021/07/01 05:37:58;;;;;;;7.50;1.92;;;22.00;96.70;;;;;;5004738;28;20132;-73
2021/07/01 05:40:28;;;;;;;7.70;2.13;;;21.90;96.70;;;;;;5003697;28;20408;-72
2021/07/01 05:42:59;;;;;;;7.28;1.70;;;22.00;96.70;;;;;;5008187;28;20569;-74
2021/07/01 05:45:29;;;;;;;7.57;1.83;;;21.90;96.70;;;;;;5020754;28;20050;-74
2021/07/01 05:47:57;;;;;;;12.55;2.13;;;22.00;96.70;;;;;;4996028;28;20673;-73
2021/07/01 05:50:26;;;;;;;8.10;1.95;;;22.10;96.70;;;;;;5003644;28;20049;-73
2021/07/01 05:53:05;;;;;;;8.07;1.98;;;22.10;96.70;;;;;;5001894;28;20042;-74
2021/07/01 05:55:35;;;;;;;9.52;2.53;;;22.20;96.70;;;;;;5006463;28;20042;-73
2021/07/01 05:58:04;;;;;;;8.68;1.77;;;22.20;96.70;;;;;;5004918;28;20042;-74
2021/07/01 06:00:32;;;;;;;7.25;1.83;;;22.20;96.70;;;;;;5005301;28;20054;-73
2021/07/01 06:03:02;;;;;;;6.45;1.52;;;22.20;96.70;;;;;;5004676;28;20076;-74
2021/07/01 06:05:30;;;;;;;6.75;2.03;;;22.20;96.70;;;;;;5005269;28;20029;-74
2021/07/01 06:08:29;;;;;;;11.77;2.13;;;22.20;96.70;;;;;;4996418;28;20840;-76
2021/07/01 06:11:05;;;;;;;7.32;1.73;;;22.30;96.70;;;;;;5005126;28;20411;-75
2021/07/01 06:13:37;;;;;;;10.23;1.80;;;22.30;96.70;;;;;;4987962;28;20049;-73
2021/07/01 06:16:09;;;;;;;7.03;1.65;;;22.20;96.70;;;;;;5009667;28;20392;-73
2021/07/01 06:18:40;;;;;;;8.18;2.03;;;22.30;96.70;;;;;;5006891;28;20060;-73
2021/07/01 06:21:09;;;;;;;8.65;1.92;;;22.40;96.70;;;;;;5006626;28;20050;-73
2021/07/01 06:23:39;;;;;;;7.38;1.80;;;22.60;96.70;;;;;;5004759;28;20050;-73
2021/07/01 06:26:09;;;;;;;12.15;2.90;;;22.60;96.70;;;;;;5006626;28;20038;-73
2021/07/01 06:28:42;;;;;;;11.57;3.50;;;22.70;96.70;;;;;;5000574;28;20053;-73
2021/07/01 06:31:10;;;;;;;9.52;2.67;;;22.80;96.70;;;;;;5002825;28;20041;-73
2021/07/01 06:33:42;;;;;;;14.02;2.90;;;22.80;96.70;;;;;;5004631;28;20044;-74
2021/07/01 06:36:11;;;;;;;9.13;2.58;;;22.80;96.70;;;;;;4998888;28;20157;-72
2021/07/01 06:39:03;;;;;;;16.50;3.88;;;22.90;96.70;;;;;;4994224;28;20157;-74
2021/07/01 06:41:53;;;;;;;13.15;2.58;;;23.00;96.70;;;;;;5003947;28;20148;-73
2021/07/01 06:44:41;;;;;;;12.20;3.20;;;23.30;96.70;;;;;;4998610;28;20057;-73
2021/07/01 06:47:28;;;;;;;14.30;3.10;;;23.40;96.70;;;;;;5014711;28;20065;-73
2021/07/01 06:50:23;;;;;;;14.77;3.83;;;23.50;96.70;;;;;;4964505;28;20052;-73
2021/07/01 06:53:13;;;;;;;13.80;3.35;;;23.70;96.70;;;;;;5002369;28;20530;-74
2021/07/01 06:56:05;;;;;;;13.25;3.80;;;23.80;96.70;;;;;;4983894;28;20500;-74
2021/07/01 06:58:40;;;;;;;12.80;3.75;;;24.00;96.70;;;;;;5009238;28;20045;-73
2021/07/01 07:01:09;;;;;;;11.70;2.67;;;24.20;96.70;;;;;;5006475;28;20451;-73
2021/07/01 07:03:38;;;;;;;8.95;2.83;;;24.20;96.70;;;;;;5021151;28;20046;-73
2021/07/01 07:06:06;;;;;;;9.68;2.53;;;24.10;96.70;;;;;;5003613;28;20069;-73
2021/07/01 07:08:41;;;;;;;11.25;2.33;;;24.20;96.70;;;;;;5004870;28;20054;-73
2021/07/01 07:11:09;;;;;;;9.38;2.40;;;24.20;96.70;;;;;;4986341;28;20503;-74
2021/07/01 07:13:39;;;;;;;8.25;1.85;;;24.40;96.70;;;;;;5000187;28;20044;-72
2021/07/01 07:16:07;;;;;;;5.10;1.35;;;24.40;96.70;;;;;;5001050;28;20577;-73
2021/07/01 07:18:37;;;;;;;9.40;1.65;;;24.40;96.50;;;;;;5004060;28;20510;-73
2021/07/01 07:21:10;;;;;;;6.50;1.67;;;24.50;95.60;;;;;;4985479;28;20096;-73
2021/07/01 07:23:39;;;;;;;10.93;2.13;;;24.50;95.80;;;;;;5001551;28;20053;-73
2021/07/01 07:26:13;;;;;;;9.65;1.83;;;24.70;96.60;;;;;;5002216;28;20026;-74
2021/07/01 07:28:44;;;;;;;6.90;1.55;;;24.70;96.30;;;;;;5007444;28;20042;-74
2021/07/01 07:31:17;;;;;;;8.70;1.70;;;24.70;95.40;;;;;;4999308;28;20045;-74
2021/07/01 07:33:46;;;;;;;10.02;2.53;;;24.80;96.70;;;;;;5018503;28;20053;-73
2021/07/01 07:36:18;;;;;;;10.95;2.75;;;24.90;96.70;;;;;;5006302;28;20105;-74
2021/07/01 07:38:48;;;;;;;9.13;1.98;;;25.00;96.70;;;;;;5004630;28;20076;-73
2021/07/01 07:41:17;;;;;;;9.65;2.35;;;24.80;96.70;;;;;;5005869;28;20125;-73
2021/07/01 07:43:48;;;;;;;11.23;2.35;;;24.70;96.70;;;;;;5003338;28;20041;-74
2021/07/01 07:46:19;;;;;;;8.45;2.45;;;24.60;96.70;;;;;;4999677;28;20875;-73
2021/07/01 07:48:47;;;;;;;9.57;2.33;;;24.70;96.70;;;;;;5000839;28;20787;-73
2021/07/01 07:51:20;;;;;;;8.98;2.13;;;24.60;96.70;;;;;;5001087;28;20156;-73
2021/07/01 07:53:52;;;;;;;10.68;2.30;;;24.70;96.70;;;;;;5007490;28;20069;-74
2021/07/01 07:56:26;;;;;;;6.78;2.08;;;24.70;96.70;;;;;;5007070;28;20116;-74
2021/07/01 07:58:56;;;;;;;8.50;2.38;;;24.60;96.50;;;;;;5008424;28;20491;-73
2021/07/01 08:01:25;;;;;;;11.52;2.65;;;24.70;96.70;;;;;;5014930;28;20041;-73
2021/07/01 08:03:54;;;;;;;8.10;2.60;;;24.70;96.50;;;;;;5010503;28;20038;-73
2021/07/01 08:06:24;;;;;;;25.00;3.70;;;24.80;95.90;;;;;;4990942;28;20775;-73
2021/07/01 08:08:56;;;;;;;10.23;2.42;;;24.90;95.90;;;;;;5008298;28;20042;-74
2021/07/01 08:11:25;;;;;;;8.00;2.20;;;24.90;95.40;;;;;;5006862;28;20038;-73
2021/07/01 08:13:59;;;;;;;15.43;2.90;;;25.00;95.60;;;;;;5006944;28;20414;-73
2021/07/01 08:16:27;;;;;;;10.43;2.78;;;25.00;96.30;;;;;;5008016;28;20149;-73
2021/07/01 08:18:57;;;;;;;10.23;1.95;;;25.00;96.70;;;;;;5020536;28;20073;-73
2021/07/01 08:21:27;;;;;;;6.55;1.88;;;25.20;96.40;;;;;;5004626;28;20057;-73
2021/07/01 08:23:57;;;;;;;33.08;4.47;;;25.30;95.60;;;;;;5010242;28;20415;-73
2021/07/01 08:26:25;;;;;;;9.15;2.50;;;25.30;95.40;;;;;;5010368;28;20049;-73
2021/07/01 08:28:55;;;;;;;6.70;1.60;;;25.30;94.50;;;;;;5002276;28;20066;-73
2021/07/01 08:31:24;;;;;;;7.80;1.90;;;25.20;93.40;;;;;;5006194;28;20046;-73
2021/07/01 08:33:53;;;;;;;9.00;1.50;;;25.20;92.60;;;;;;5006426;28;20049;-74
2021/07/01 08:36:23;;;;;;;7.65;1.63;;;25.30;92.30;;;;;;5007929;28;20830;-73
2021/07/01 08:38:53;;;;;;;7.93;1.70;;;25.50;91.70;;;;;;5005293;28;20050;-73
2021/07/01 08:41:24;;;;;;;15.82;2.50;;;25.60;91.90;;;;;;5007166;28;20116;-73
2021/07/01 08:43:55;;;;;;;13.88;2.10;;;25.60;92.40;;;;;;5007656;28;20045;-73
2021/07/01 08:46:27;;;;;;;19.88;2.90;;;25.80;92.00;;;;;;5008080;28;20034;-74
2021/07/01 08:49:05;;;;;;;14.30;2.60;;;25.90;91.60;;;;;;5011229;28;20472;-73
2021/07/01 08:51:36;;;;;;;10.70;2.33;;;25.80;93.80;;;;;;5006415;28;20484;-73
2021/07/01 08:54:16;;;;;;;11.23;2.15;;;25.60;93.60;;;;;;5006807;28;20072;-73
2021/07/01 08:56:44;;;;;;;10.05;2.45;;;25.50;93.40;;;;;;5007194;28;20046;-73
2021/07/01 08:59:18;;;;;;;8.20;1.80;;;25.50;93.40;;;;;;5011002;28;20050;-73
2021/07/01 09:01:55;;;;;;;8.48;1.88;;;25.50;92.90;;;;;;5010692;28;20133;-73
2021/07/01 09:04:29;;;;;;;8.48;1.50;;;25.30;93.80;;;;;;5009896;28;20045;-73
2021/07/01 09:06:59;;;;;;;6.60;1.70;;;25.50;92.80;;;;;;5021807;28;20092;-73
2021/07/01 09:09:33;;;;;;;9.98;1.73;;;25.60;92.10;;;;;;5019964;28;20046;-73
2021/07/01 09:12:06;;;;;;;6.40;1.50;;;25.80;91.90;;;;;;5005361;28;20128;-72
2021/07/01 09:14:37;;;;;;;14.45;2.45;;;25.70;91.90;;;;;;5019939;28;20438;-73
2021/07/01 09:17:09;;;;;;;9.30;2.03;;;25.60;94.00;;;;;;5004983;28;20073;-73
2021/07/01 09:19:38;;;;;;;8.52;2.17;;;25.60;93.80;;;;;;4988069;28;20443;-72
2021/07/01 09:22:15;;;;;;;10.20;2.20;;;25.60;93.40;;;;;;5005865;28;20065;-73
2021/07/01 09:24:49;;;;;;;9.40;2.65;;;25.60;93.30;;;;;;5020114;28;20046;-73
2021/07/01 09:27:18;;;;;;;7.68;1.65;;;25.60;93.10;;;;;;5010034;28;20090;-73
2021/07/01 09:29:49;;;;;;;8.52;1.75;;;25.60;92.60;;;;;;5006473;28;20546;-73
2021/07/01 09:32:20;;;;;;;8.48;2.13;;;25.80;92.20;;;;;;5003750;28;20404;-72
2021/07/01 09:34:50;;;;;;;9.52;2.22;;;25.90;92.90;;;;;;5006523;28;20111;-73
2021/07/01 09:37:21;;;;;;;7.55;2.10;;;26.00;93.70;;;;;;5007480;28;20050;-73
2021/07/01 09:39:49;;;;;;;11.93;2.58;;;25.90;93.20;;;;;;5004041;28;20058;-73
2021/07/01 09:42:20;;;;;;;16.05;2.50;;;25.90;93.00;;;;;;5006054;28;20446;-73
2021/07/01 09:44:50;;;;;;;7.13;2.03;;;26.00;93.10;;;;;;5003788;28;20076;-73
2021/07/01 09:47:23;;;;;;;18.65;3.00;;;26.10;93.20;;;;;;5005046;28;20085;-74
2021/07/01 09:49:53;;;;;;;9.05;2.25;;;26.20;93.10;;;;;;5006974;28;20046;-74
2021/07/01 09:52:27;;;;;;;6.15;1.85;;;26.20;91.60;;;;;;5005001;28;20439;-73
2021/07/01 09:55:02;;;;;;;8.30;2.13;;;26.00;91.60;;;;;;5007454;28;20033;-73
2021/07/01 09:57:36;;;;;;;16.57;2.90;;;26.20;91.70;;;;;;5008969;28;20125;-73
2021/07/01 10:00:08;;;;;;;8.10;1.98;;;26.20;90.60;;;;;;5020768;28;20053;-72
2021/07/01 10:03:00;;;;;;;6.07;1.70;;;26.10;90.40;;;;;;5007344;28;20132;-72
2021/07/01 10:05:30;;;;;;;15.57;2.60;;;26.30;91.60;;;;;;5012089;28;20048;-72
2021/07/01 10:07:58;;;;;;;10.10;2.22;;;26.40;92.20;;;;;;5008558;28;20045;-73
2021/07/01 10:10:27;;;;;;;8.57;1.73;;;26.40;91.40;;;;;;5020709;28;20133;-73
2021/07/01 10:12:58;;;;;;;9.15;1.50;;;26.40;91.20;;;;;;5005740;28;20455;-72
2021/07/01 10:15:32;;;;;;;6.07;1.48;;;26.30;88.80;;;;;;5006551;28;20460;-72
2021/07/01 10:18:08;;;;;;;6.65;1.60;;;26.40;87.70;;;;;;5003162;28;20455;-73
2021/07/01 10:20:54;;;;;;;16.45;2.00;;;26.40;88.10;;;;;;5005462;28;20053;-73
2021/07/01 10:23:24;;;;;;;9.77;1.45;;;26.40;89.10;;;;;;5004325;28;20039;-73
2021/07/01 10:25:54;;;;;;;5.20;1.10;;;26.50;88.30;;;;;;5003406;28;20340;-72
2021/07/01 10:28:24;;;;;;;14.90;2.03;;;26.60;86.80;;;;;;5006127;28;20044;-73
2021/07/01 10:30:58;;;;;;;8.35;1.52;;;26.70;87.10;;;;;;5000608;28;20562;-73
2021/07/01 10:33:28;;;;;;;11.95;2.05;;;26.70;86.80;;;;;;5005146;28;20517;-72
2021/07/01 10:36:00;;;;;;;5.22;1.15;;;26.80;86.70;;;;;;5003836;28;20050;-73
2021/07/01 10:38:40;;;;;;;6.82;1.30;;;26.80;85.30;;;;;;4987547;28;20045;-73
2021/07/01 10:41:08;;;;;;;7.10;1.45;;;26.90;85.80;;;;;;5006022;28;20045;-73
2021/07/01 10:43:40;;;;;;;5.40;1.35;;;26.90;85.40;;;;;;5002461;28;20038;-73
2021/07/01 10:46:11;;;;;;;5.13;1.20;;;26.90;85.40;;;;;;5002221;28;20347;-73
2021/07/01 10:48:40;;;;;;;4.25;1.20;;;27.00;84.60;;;;;;5003754;28;20058;-73
2021/07/01 10:51:10;;;;;;;5.35;1.00;;;27.20;85.10;;;;;;4998643;28;20480;-73
2021/07/01 10:53:41;;;;;;;5.82;1.25;;;27.30;84.70;;;;;;4996667;28;20511;-73
2021/07/01 10:56:28;;;;;;;5.20;0.93;;;27.20;84.40;;;;;;5003399;28;20532;-73
2021/07/01 10:58:58;;;;;;;4.00;1.20;;;27.30;83.70;;;;;;5003220;28;20049;-73
2021/07/01 11:01:33;;;;;;;8.68;1.50;;;27.20;83.40;;;;;;5005578;28;20061;-73
2021/07/01 11:04:07;;;;;;;7.90;1.27;;;27.40;83.30;;;;;;4997964;28;20056;-73
2021/07/01 11:06:37;;;;;;;3.83;0.88;;;27.50;83.40;;;;;;5005047;28;20034;-73
2021/07/01 11:09:06;;;;;;;7.32;1.17;;;27.40;83.30;;;;;;5004802;28;20053;-72
2021/07/01 11:11:36;;;;;;;6.85;1.48;;;27.50;83.10;;;;;;5005920;28;20041;-73
2021/07/01 11:14:07;;;;;;;7.80;1.17;;;27.50;82.80;;;;;;5003126;28;20506;-73
2021/07/01 11:16:40;;;;;;;5.63;1.42;;;27.60;83.10;;;;;;5002837;28;20042;-73
2021/07/01 11:19:11;;;;;;;5.18;1.00;;;27.70;82.40;;;;;;5003482;28;20383;-72
2021/07/01 11:21:45;;;;;;;5.35;0.63;;;27.80;82.40;;;;;;5006647;28;20038;-73
2021/07/01 11:24:17;;;;;;;5.25;0.85;;;27.60;81.40;;;;;;5003382;28;20045;-72
2021/07/01 11:26:47;;;;;;;5.55;0.80;;;27.70;82.00;;;;;;5018738;28;20050;-73
2021/07/01 11:29:15;;;;;;;8.07;1.38;;;27.80;81.70;;;;;;5005453;28;20050;-73
2021/07/01 11:31:47;;;;;;;3.80;1.00;;;27.90;82.10;;;;;;5004449;28;20454;-73
2021/07/01 11:34:17;;;;;;;4.22;0.93;;;27.60;81.80;;;;;;5001988;28;20037;-73
2021/07/01 11:36:51;;;;;;;4.35;1.20;;;27.80;82.30;;;;;;5005424;28;20407;-73
2021/07/01 11:39:27;;;;;;;5.68;1.00;;;27.90;81.70;;;;;;5003013;28;20084;-73
2021/07/01 11:41:57;;;;;;;6.15;1.00;;;28.00;81.20;;;;;;4986211;28;20454;-73
2021/07/01 11:44:28;;;;;;;3.75;0.77;;;27.90;81.00;;;;;;5002848;28;20038;-73
2021/07/01 11:47:00;;;;;;;5.15;1.02;;;27.90;81.00;;;;;;5006844;28;20041;-72
2021/07/01 11:49:31;;;;;;;3.75;0.80;;;27.90;80.70;;;;;;5005172;28;20050;-73
2021/07/01 11:52:00;;;;;;;4.07;0.70;;;28.00;79.70;;;;;;5007445;28;20081;-73
2021/07/01 11:54:28;;;;;;;2.80;0.80;;;28.00;80.20;;;;;;4998468;28;20472;-73
2021/07/01 11:57:00;;;;;;;6.53;1.13;;;28.20;79.40;;;;;;5002899;28;20519;-73
2021/07/01 11:59:29;;;;;;;3.85;0.85;;;28.30;79.70;;;;;;5004317;28;20488;-72
2021/07/01 12:02:01;;;;;;;4.05;1.02;;;28.20;79.50;;;;;;5002624;28;20339;-73
2021/07/01 12:04:33;;;;;;;2.40;1.00;;;28.10;80.50;;;;;;5003798;28;20053;-73
2021/07/01 12:10:46;;;;;;;3.47;0.70;;;28.40;79.00;;;;;;5003625;28;20666;-73
2021/07/01 12:13:39;;;;;;;4.68;0.80;;;28.30;79.80;;;;;;5006594;28;20502;-73
2021/07/01 12:16:09;;;;;;;4.82;1.00;;;28.20;79.10;;;;;;5001369;28;20600;-73
2021/07/01 12:19:01;;;;;;;2.40;0.90;;;28.20;79.00;;;;;;5004058;28;20140;-73
2021/07/01 12:21:30;;;;;;;4.15;0.73;;;28.40;78.90;;;;;;4992579;28;20077;-73
2021/07/01 12:24:00;;;;;;;3.90;0.85;;;28.40;78.60;;;;;;5005867;28;20092;-73
2021/07/01 12:26:37;;;;;;;4.18;0.80;;;28.20;78.50;;;;;;5001964;28;20046;-73
2021/07/01 12:29:08;;;;;;;3.90;0.93;;;28.40;78.40;;;;;;5004836;28;20048;-72
2021/07/01 12:31:37;;;;;;;4.78;0.80;;;28.20;78.90;;;;;;5000589;28;20555;-72
2021/07/01 12:34:08;;;;;;;5.88;0.80;;;28.20;79.10;;;;;;5003700;28;20052;-73
2021/07/01 12:36:42;;;;;;;4.70;0.80;;;28.30;78.90;;;;;;5002613;28;20526;-73
2021/07/01 12:39:22;;;;;;;4.05;0.75;;;28.30;78.60;;;;;;5004804;28;20046;-73
2021/07/01 12:41:54;;;;;;;7.53;1.10;;;28.40;78.20;;;;;;5004364;28;20124;-72
2021/07/01 12:44:28;;;;;;;5.68;0.63;;;28.50;78.30;;;;;;5007394;28;20049;-72
2021/07/01 12:47:09;;;;;;;3.22;0.60;;;28.40;77.20;;;;;;5007929;28;20081;-72
2021/07/01 12:49:52;;;;;;;4.55;1.00;;;28.40;78.00;;;;;;5018292;28;20104;-72
2021/07/01 12:52:22;;;;;;;3.60;1.10;;;28.40;78.50;;;;;;5005084;28;20054;-73
2021/07/01 12:54:55;;;;;;;3.72;1.05;;;28.50;78.70;;;;;;5004239;28;21002;-73
2021/07/01 12:57:24;;;;;;;4.78;0.60;;;28.70;78.50;;;;;;5004977;28;20415;-73
2021/07/01 12:59:54;;;;;;;5.38;1.00;;;28.70;77.10;;;;;;5004333;28;20423;-73
2021/07/01 13:02:28;;;;;;;1.88;0.52;;;28.60;77.30;;;;;;5018879;28;20033;-73
2021/07/01 13:04:59;;;;;;;3.95;0.73;;;28.70;76.60;;;;;;5009993;28;20096;-73
2021/07/01 13:07:30;;;;;;;2.35;0.65;;;28.70;75.70;;;;;;5020148;28;20586;-73
2021/07/01 13:10:01;;;;;;;3.85;1.20;;;29.00;75.70;;;;;;5023216;28;20126;-73
2021/07/01 13:12:32;;;;;;;2.75;0.60;;;29.00;75.20;;;;;;5007933;28;20066;-73
2021/07/01 13:15:21;;;;;;;3.92;0.73;;;29.00;74.90;;;;;;5023838;28;20131;-72
2021/07/01 13:17:50;;;;;;;3.50;0.60;;;29.20;74.80;;;;;;5005707;28;20070;-72
2021/07/01 13:20:21;;;;;;;3.08;0.68;;;29.20;74.40;;;;;;5016045;28;20835;-73
2021/07/01 13:22:50;;;;;;;4.43;0.80;;;29.10;74.50;;;;;;5007449;28;20052;-73
2021/07/01 13:25:21;;;;;;;4.10;0.90;;;29.10;73.80;;;;;;5003457;28;20058;-73